Time;durP1;ratioP1;P1;durP2;ratioP2;P2;SDS_P1;SDS_P2;PMS_P1;PMS_P2;Temp;Humidity;BMP_temperature;BMP_pressure;BME280_temperature;BME280_humidity;BME280_pressure;Samples;Min_cycle;Max_cycle;Signal;HPM_P1;HPM_P2
2023/03/10 00:01:23;;;;;;;17.50;8.05;;;1.60;99.90;;;;;;5032055;28;20041;-74
2023/03/10 00:03:49;;;;;;;16.90;8.75;;;2.10;99.90;;;;;;5032024;28;20049;-75
2023/03/10 00:06:17;;;;;;;19.15;9.15;;;1.30;99.90;;;;;;5031860;28;20041;-75
2023/03/10 00:08:43;;;;;;;18.30;9.13;;;2.00;99.90;;;;;;5031132;28;20490;-74
2023/03/10 00:11:10;;;;;;;19.40;10.02;;;1.40;99.90;;;;;;5031920;28;20080;-74
2023/03/10 00:13:36;;;;;;;17.17;9.13;;;2.70;99.90;;;;;;5014317;28;20128;-74
2023/03/10 00:16:02;;;;;;;18.23;9.68;;;2.20;99.90;;;;;;5030125;28;20041;-76
2023/03/10 00:18:27;;;;;;;17.70;9.38;;;1.90;99.90;;;;;;5031771;28;20042;-75
2023/03/10 00:20:54;;;;;;;17.02;8.70;;;1.50;99.90;;;;;;5031769;28;20064;-75
2023/03/10 00:23:21;;;;;;;20.98;10.60;;;1.80;99.90;;;;;;5014315;28;20045;-75
2023/03/10 00:25:58;;;;;;;15.15;8.20;;;2.20;99.90;;;;;;5032434;28;20081;-74
2023/03/10 00:28:25;;;;;;;16.20;8.82;;;1.30;99.90;;;;;;5030549;28;20194;-74
2023/03/10 00:30:59;;;;;;;18.75;9.90;;;3.60;99.90;;;;;;5031781;28;20049;-75
2023/03/10 00:33:25;;;;;;;20.13;10.57;;;1.40;99.90;;;;;;5030612;28;20052;-75
2023/03/10 00:36:04;;;;;;;21.08;10.32;;;1.90;99.90;;;;;;5031533;28;20037;-75
2023/03/10 00:38:29;;;;;;;18.17;10.10;;;1.40;99.90;;;;;;5030323;28;20523;-75
2023/03/10 00:41:05;;;;;;;21.98;11.75;;;1.70;99.90;;;;;;5030283;28;20042;-75
2023/03/10 00:43:30;;;;;;;22.35;11.15;;;1.30;99.90;;;;;;5031514;28;20094;-75
2023/03/10 00:45:56;;;;;;;19.50;10.68;;;1.50;99.90;;;;;;5030249;28;20463;-74
2023/03/10 00:48:22;;;;;;;17.98;9.20;;;2.20;99.90;;;;;;5030820;28;20150;-75
2023/03/10 00:50:48;;;;;;;21.02;10.65;;;2.10;99.90;;;;;;5031335;28;20435;-74
2023/03/10 00:53:14;;;;;;;16.00;8.68;;;2.50;99.90;;;;;;5031200;28;20088;-75
2023/03/10 00:55:39;;;;;;;17.27;8.57;;;1.50;99.90;;;;;;5031216;28;20125;-75
2023/03/10 00:58:05;;;;;;;18.95;9.52;;;1.50;99.90;;;;;;5030132;28;20408;-75
2023/03/10 01:00:31;;;;;;;18.73;8.98;;;1.80;99.90;;;;;;5031196;28;20492;-74
2023/03/10 01:02:58;;;;;;;18.75;9.48;;;1.40;99.90;;;;;;5030294;28;20110;-75
2023/03/10 01:05:24;;;;;;;17.95;9.57;;;2.00;99.90;;;;;;5030275;28;20037;-75
2023/03/10 01:07:49;;;;;;;18.48;9.77;;;3.10;99.90;;;;;;5031408;28;20049;-75
2023/03/10 01:10:15;;;;;;;17.13;9.07;;;1.40;99.90;;;;;;5031075;28;20067;-74
2023/03/10 01:12:41;;;;;;;18.33;9.10;;;1.40;99.90;;;;;;5031017;28;20120;-73
2023/03/10 01:15:07;;;;;;;16.10;8.00;;;1.40;99.90;;;;;;5013603;28;20128;-74
2023/03/10 01:17:33;;;;;;;17.83;10.18;;;1.40;99.90;;;;;;5030457;28;20090;-75
2023/03/10 01:19:58;;;;;;;18.50;9.43;;;2.40;99.90;;;;;;5030215;28;20045;-74
2023/03/10 01:22:24;;;;;;;17.45;9.95;;;1.90;99.90;;;;;;5029338;28;20045;-74
2023/03/10 01:24:50;;;;;;;15.25;8.35;;;2.70;99.90;;;;;;5028371;28;20490;-75
2023/03/10 01:27:16;;;;;;;15.77;8.35;;;1.40;99.90;;;;;;5027846;28;20378;-75
2023/03/10 01:29:41;;;;;;;14.18;7.57;;;1.80;99.90;;;;;;5029194;28;20044;-74
2023/03/10 01:32:07;;;;;;;15.18;8.13;;;1.30;99.90;;;;;;5030010;28;20049;-74
2023/03/10 01:34:32;;;;;;;14.70;8.20;;;1.40;99.90;;;;;;5030396;28;20124;-74
2023/03/10 01:36:58;;;;;;;13.05;7.40;;;1.80;99.90;;;;;;5029187;28;20045;-74
2023/03/10 01:39:24;;;;;;;15.50;7.70;;;1.50;99.90;;;;;;5029893;28;20052;-75
2023/03/10 01:41:50;;;;;;;14.10;7.20;;;1.60;99.90;;;;;;5030263;28;20102;-74
2023/03/10 01:44:20;;;;;;;16.92;8.02;;;1.60;99.90;;;;;;5030129;28;20100;-74
2023/03/10 01:46:53;;;;;;;13.80;6.68;;;1.60;99.90;;;;;;5029734;28;20437;-75
2023/03/10 01:49:31;;;;;;;12.07;6.25;;;1.90;99.90;;;;;;5030279;28;20339;-74
2023/03/10 01:52:05;;;;;;;11.30;5.93;;;2.50;99.90;;;;;;5028937;28;20538;-74
2023/03/10 01:54:45;;;;;;;12.82;5.75;;;2.00;99.90;;;;;;5029613;28;20042;-74
2023/03/10 01:57:13;;;;;;;11.63;5.78;;;1.40;99.90;;;;;;5029928;28;20470;-74
2023/03/10 01:59:39;;;;;;;10.80;5.45;;;1.90;99.90;;;;;;5029673;28;20475;-75
2023/03/10 02:02:06;;;;;;;12.57;7.13;;;2.70;99.90;;;;;;5030002;28;20049;-75
2023/03/10 02:04:41;;;;;;;10.70;5.32;;;3.00;99.90;;;;;;5029933;28;20041;-75
2023/03/10 02:07:07;;;;;;;11.02;5.72;;;1.40;99.90;;;;;;5028582;28;20037;-76
2023/03/10 02:09:37;;;;;;;11.13;5.95;;;1.50;99.90;;;;;;5028969;28;20084;-75
2023/03/10 02:12:04;;;;;;;12.95;5.15;;;1.40;99.90;;;;;;5028848;28;20049;-74
2023/03/10 02:14:31;;;;;;;13.18;6.38;;;1.40;99.90;;;;;;5029822;28;20046;-75
2023/03/10 02:16:57;;;;;;;12.50;6.82;;;1.50;99.90;;;;;;5029320;28;20493;-74
2023/03/10 02:19:50;;;;;;;11.48;5.90;;;1.50;99.90;;;;;;5028510;28;20045;-74
2023/03/10 02:22:16;;;;;;;11.20;5.45;;;2.60;99.90;;;;;;5028449;28;20076;-75
2023/03/10 02:24:51;;;;;;;10.32;5.75;;;3.50;99.90;;;;;;5028131;28;20053;-75
2023/03/10 02:27:23;;;;;;;10.25;5.97;;;1.40;99.90;;;;;;5029838;28;20486;-74
2023/03/10 02:30:04;;;;;;;12.23;5.82;;;1.80;99.90;;;;;;5029627;28;20056;-75
2023/03/10 02:32:33;;;;;;;11.43;5.50;;;1.30;99.90;;;;;;5029656;28;20081;-75
2023/03/10 02:34:58;;;;;;;12.75;6.20;;;1.30;99.90;;;;;;5029534;28;20049;-76
2023/03/10 02:37:27;;;;;;;14.80;6.15;;;2.20;99.90;;;;;;5030039;28;20128;-75
2023/03/10 02:39:53;;;;;;;10.95;6.05;;;2.00;99.90;;;;;;5032838;28;20387;-74
2023/03/10 02:42:21;;;;;;;8.20;4.18;;;2.80;99.90;;;;;;5032799;28;20045;-75
2023/03/10 02:44:48;;;;;;;13.07;6.43;;;1.40;99.90;;;;;;5032212;28;20471;-75
2023/03/10 02:47:14;;;;;;;11.95;5.93;;;1.40;99.90;;;;;;5032141;28;20037;-75
2023/03/10 02:49:41;;;;;;;12.45;5.35;;;2.70;99.90;;;;;;5032747;28;20144;-75
2023/03/10 02:52:19;;;;;;;12.63;5.97;;;1.90;99.90;;;;;;5032864;28;20042;-75
2023/03/10 02:54:45;;;;;;;12.68;6.47;;;1.60;99.90;;;;;;5032768;28;20095;-75
2023/03/10 02:57:11;;;;;;;10.00;5.47;;;1.90;99.90;;;;;;5032851;28;20554;-75
2023/03/10 02:59:36;;;;;;;11.18;5.45;;;1.60;99.90;;;;;;5031687;28;20041;-75
2023/03/10 03:02:02;;;;;;;11.85;5.85;;;1.40;99.90;;;;;;5032595;28;20041;-75
2023/03/10 03:04:28;;;;;;;12.98;6.82;;;1.40;99.90;;;;;;5031480;28;20541;-75
2023/03/10 03:06:53;;;;;;;12.82;6.55;;;1.40;99.90;;;;;;5032478;28;20042;-76
2023/03/10 03:09:19;;;;;;;10.82;5.68;;;3.00;99.90;;;;;;5031465;28;20049;-75
2023/03/10 03:11:45;;;;;;;11.60;6.07;;;1.50;99.90;;;;;;5032639;28;20041;-75
2023/03/10 03:14:10;;;;;;;12.05;6.53;;;1.80;99.90;;;;;;5032598;28;20124;-75
2023/03/10 03:16:36;;;;;;;11.60;6.40;;;2.20;99.90;;;;;;5030863;28;20085;-74
2023/03/10 03:19:02;;;;;;;13.60;6.53;;;2.40;99.90;;;;;;5032179;28;20041;-75
2023/03/10 03:21:27;;;;;;;13.88;6.53;;;1.50;99.90;;;;;;5032444;28;20470;-75
2023/03/10 03:23:53;;;;;;;11.82;6.35;;;2.30;99.90;;;;;;5031269;28;20128;-75
2023/03/10 03:26:23;;;;;;;13.25;6.55;;;2.90;99.90;;;;;;5031708;28;20049;-75
2023/03/10 03:28:48;;;;;;;15.02;6.43;;;1.70;99.90;;;;;;5014952;28;20037;-73
2023/03/10 03:31:20;;;;;;;11.52;6.10;;;1.40;99.90;;;;;;5032183;28;20185;-75
2023/03/10 03:33:45;;;;;;;14.63;7.03;;;1.50;99.90;;;;;;5031233;28;20085;-75
2023/03/10 03:36:12;;;;;;;13.70;6.80;;;1.60;99.90;;;;;;5030987;28;20100;-76
2023/03/10 03:38:38;;;;;;;15.02;7.22;;;1.90;99.90;;;;;;5031060;28;20128;-75
2023/03/10 03:41:05;;;;;;;12.40;6.47;;;2.30;99.90;;;;;;5031994;28;20124;-75
2023/03/10 03:43:31;;;;;;;12.82;7.20;;;1.60;99.90;;;;;;5031066;28;20046;-75
2023/03/10 03:45:57;;;;;;;14.70;7.43;;;1.70;99.90;;;;;;5031641;28;20068;-74
2023/03/10 03:48:23;;;;;;;17.25;9.00;;;1.50;99.90;;;;;;5030890;28;20467;-75
2023/03/10 03:50:49;;;;;;;17.00;8.90;;;1.60;99.90;;;;;;5031374;28;20490;-74
2023/03/10 03:53:14;;;;;;;19.00;8.40;;;2.30;99.90;;;;;;5031792;28;20045;-74
2023/03/10 03:55:40;;;;;;;18.45;9.30;;;2.00;99.90;;;;;;5031735;28;20037;-75
2023/03/10 03:58:06;;;;;;;20.48;9.77;;;1.50;99.90;;;;;;5031578;28;20051;-75
2023/03/10 04:00:34;;;;;;;22.42;10.45;;;2.00;99.90;;;;;;5014274;28;20053;-75
2023/03/10 04:03:00;;;;;;;19.85;9.68;;;3.10;99.90;;;;;;5031286;28;20494;-76
2023/03/10 04:05:26;;;;;;;20.88;9.35;;;2.00;99.90;;;;;;5031654;28;20040;-75
2023/03/10 04:07:52;;;;;;;23.00;10.48;;;1.40;99.90;;;;;;5031163;28;20041;-75
2023/03/10 04:10:20;;;;;;;21.92;9.52;;;1.80;99.90;;;;;;5031488;28;20110;-75
2023/03/10 04:12:46;;;;;;;19.38;9.63;;;1.60;99.90;;;;;;5013886;28;20479;-75
2023/03/10 04:15:12;;;;;;;21.40;10.93;;;2.70;99.90;;;;;;5031393;28;20090;-76
2023/03/10 04:17:38;;;;;;;20.65;10.00;;;1.30;99.90;;;;;;5029590;28;20435;-76
2023/03/10 04:20:07;;;;;;;20.40;8.88;;;1.40;99.90;;;;;;5014085;28;20053;-75
2023/03/10 04:22:33;;;;;;;23.20;11.15;;;1.30;99.90;;;;;;5031237;28;20132;-75
2023/03/10 04:24:58;;;;;;;24.20;11.25;;;1.40;99.90;;;;;;5030641;28;20069;-75
2023/03/10 04:27:24;;;;;;;20.10;9.98;;;1.70;99.90;;;;;;5031435;28;20070;-75
2023/03/10 04:29:50;;;;;;;22.42;11.25;;;1.30;99.90;;;;;;5031223;28;20502;-74
2023/03/10 04:32:15;;;;;;;22.95;11.40;;;2.60;99.90;;;;;;5029856;28;20044;-75
2023/03/10 04:34:41;;;;;;;23.13;10.93;;;2.20;99.90;;;;;;5030897;28;20042;-75
2023/03/10 04:37:07;;;;;;;23.50;10.88;;;1.40;99.90;;;;;;5031101;28;20033;-75
2023/03/10 04:39:35;;;;;;;19.88;9.25;;;1.40;99.90;;;;;;5030956;28;20045;-76
2023/03/10 04:42:00;;;;;;;24.70;11.43;;;2.60;99.90;;;;;;5031134;28;20063;-75
2023/03/10 04:44:26;;;;;;;20.77;10.50;;;1.50;99.90;;;;;;5030962;28;20168;-75
2023/03/10 04:46:51;;;;;;;21.85;10.93;;;2.60;99.90;;;;;;5030335;28;20482;-75
2023/03/10 04:49:17;;;;;;;27.02;12.60;;;1.40;99.90;;;;;;5030021;28;20042;-76
2023/03/10 04:51:43;;;;;;;22.65;12.27;;;2.00;99.90;;;;;;5030888;28;20170;-75
2023/03/10 04:54:09;;;;;;;25.27;12.30;;;1.40;99.90;;;;;;5030813;28;20105;-75
2023/03/10 04:56:35;;;;;;;25.02;11.95;;;1.40;99.90;;;;;;5013434;28;20420;-76
2023/03/10 04:59:01;;;;;;;28.15;13.48;;;1.50;99.90;;;;;;5027857;28;20132;-76
2023/03/10 05:01:31;;;;;;;26.90;12.70;;;2.20;99.90;;;;;;5027249;28;20037;-76
2023/03/10 05:03:58;;;;;;;28.05;12.82;;;1.80;99.90;;;;;;5028000;28;20049;-76
2023/03/10 05:06:24;;;;;;;35.00;15.82;;;1.90;99.90;;;;;;5029960;28;20547;-75
2023/03/10 05:08:49;;;;;;;34.13;16.23;;;1.60;99.90;;;;;;5030377;28;20049;-76
2023/03/10 05:11:15;;;;;;;28.58;12.90;;;2.50;99.90;;;;;;5030773;28;20098;-75
2023/03/10 05:13:41;;;;;;;37.60;17.52;;;1.30;99.90;;;;;;5029465;28;20132;-76
2023/03/10 05:16:18;;;;;;;39.30;17.77;;;2.50;99.90;;;;;;5030463;28;20041;-75
2023/03/10 05:18:43;;;;;;;34.95;17.20;;;1.30;99.90;;;;;;5029996;28;20041;-75
2023/03/10 05:21:10;;;;;;;36.05;17.65;;;1.30;99.90;;;;;;5030498;28;20423;-75
2023/03/10 05:23:36;;;;;;;34.20;16.13;;;1.30;99.90;;;;;;5012916;28;20041;-75
2023/03/10 05:26:07;;;;;;;36.53;15.10;;;1.90;99.90;;;;;;5030021;28;20489;-75
2023/03/10 05:28:33;;;;;;;36.15;17.15;;;1.80;99.90;;;;;;5030375;28;20088;-75
2023/03/10 05:30:59;;;;;;;32.95;15.50;;;1.40;99.90;;;;;;5030341;28;20041;-76
2023/03/10 05:33:25;;;;;;;35.17;16.38;;;2.10;99.90;;;;;;5030319;28;20093;-75
2023/03/10 05:35:50;;;;;;;36.80;16.98;;;2.20;99.90;;;;;;5029289;28;20053;-75
2023/03/10 05:38:17;;;;;;;32.22;14.00;;;2.20;99.90;;;;;;5030176;28;20041;-75
2023/03/10 05:40:43;;;;;;;29.63;14.13;;;2.10;99.90;;;;;;5030251;28;20052;-75
2023/03/10 05:43:09;;;;;;;31.63;15.18;;;1.70;99.90;;;;;;5029233;28;20095;-75
2023/03/10 05:45:35;;;;;;;28.35;12.95;;;2.00;99.90;;;;;;5029972;28;20106;-74
2023/03/10 05:48:01;;;;;;;26.35;12.02;;;2.20;99.90;;;;;;5029722;28;20494;-75
2023/03/10 05:50:28;;;;;;;27.88;13.60;;;1.30;99.90;;;;;;5030107;28;20459;-74
2023/03/10 05:52:53;;;;;;;30.42;13.63;;;2.30;99.90;;;;;;5030078;28;20041;-73
2023/03/10 05:55:20;;;;;;;24.05;11.88;;;2.60;99.90;;;;;;5030136;28;20467;-74
2023/03/10 05:57:46;;;;;;;23.55;11.95;;;1.30;99.90;;;;;;5029999;28;20080;-74
2023/03/10 06:00:13;;;;;;;25.00;12.77;;;1.30;99.90;;;;;;5029858;28;20052;-74
2023/03/10 06:02:39;;;;;;;22.20;10.43;;;1.10;99.90;;;;;;5029992;28;20547;-74
2023/03/10 06:05:07;;;;;;;23.40;10.57;;;1.30;99.90;;;;;;5029625;28;20048;-73
2023/03/10 06:07:34;;;;;;;25.33;12.18;;;1.10;99.90;;;;;;5029786;28;20037;-74
2023/03/10 06:10:00;;;;;;;21.92;11.18;;;2.60;99.90;;;;;;5029924;28;20049;-73
2023/03/10 06:12:25;;;;;;;20.17;10.23;;;1.20;99.90;;;;;;5029621;28;20070;-73
2023/03/10 06:14:51;;;;;;;21.17;10.60;;;1.10;99.90;;;;;;5033224;28;20045;-73
2023/03/10 06:17:17;;;;;;;18.83;10.02;;;2.80;99.90;;;;;;5032716;28;20041;-73
2023/03/10 06:19:42;;;;;;;22.83;10.55;;;1.00;99.90;;;;;;5015813;28;20041;-73
2023/03/10 06:22:08;;;;;;;18.13;8.48;;;1.00;99.90;;;;;;5033082;28;20037;-73
2023/03/10 06:24:34;;;;;;;18.75;9.48;;;2.30;99.90;;;;;;5033275;28;20170;-74
2023/03/10 06:26:59;;;;;;;22.90;10.25;;;1.00;99.90;;;;;;5033039;28;20057;-72
2023/03/10 06:29:25;;;;;;;17.17;8.38;;;1.20;99.90;;;;;;5033000;28;20105;-73
2023/03/10 06:31:51;;;;;;;23.08;10.57;;;1.10;99.90;;;;;;5033128;28;20054;-73
2023/03/10 06:34:17;;;;;;;19.90;9.82;;;1.20;99.90;;;;;;5032901;28;20041;-73
2023/03/10 06:36:43;;;;;;;23.90;10.90;;;0.90;99.90;;;;;;5032848;28;20049;-73
2023/03/10 06:39:08;;;;;;;20.42;10.02;;;1.00;99.90;;;;;;5033042;28;20042;-73
2023/03/10 06:41:35;;;;;;;21.65;10.10;;;2.40;99.90;;;;;;5031627;28;20049;-73
2023/03/10 06:44:01;;;;;;;18.27;9.85;;;1.00;99.90;;;;;;5032541;28;20487;-74
2023/03/10 06:46:27;;;;;;;18.23;8.38;;;1.20;99.90;;;;;;5032737;28;20037;-73
2023/03/10 06:48:53;;;;;;;20.73;8.93;;;0.90;99.90;;;;;;5032451;28;20120;-74
2023/03/10 06:51:20;;;;;;;21.73;9.52;;;1.00;99.90;;;;;;5032373;28;20508;-74
2023/03/10 06:53:48;;;;;;;21.90;9.40;;;1.30;99.90;;;;;;5032627;28;20045;-74
2023/03/10 06:56:16;;;;;;;20.48;9.35;;;2.40;99.90;;;;;;5032884;28;20045;-74
2023/03/10 06:58:43;;;;;;;21.00;9.27;;;1.40;99.90;;;;;;5031843;28;20053;-74
2023/03/10 07:01:18;;;;;;;22.60;10.55;;;1.00;99.90;;;;;;5032933;28;20053;-74
2023/03/10 07:03:44;;;;;;;22.92;10.48;;;1.00;99.90;;;;;;5033124;28;20040;-74
2023/03/10 07:06:10;;;;;;;22.30;9.57;;;0.90;99.90;;;;;;5031350;28;20494;-73
2023/03/10 07:08:35;;;;;;;22.17;10.68;;;1.00;99.90;;;;;;5032453;28;20081;-72
2023/03/10 07:11:01;;;;;;;22.52;9.73;;;1.80;99.90;;;;;;5031647;28;20038;-72
2023/03/10 07:13:27;;;;;;;20.80;10.20;;;1.30;99.90;;;;;;5031765;28;20042;-72
2023/03/10 07:15:52;;;;;;;25.63;10.93;;;1.00;99.90;;;;;;5032756;28;20544;-71
2023/03/10 07:18:18;;;;;;;20.60;9.10;;;0.90;99.90;;;;;;5032127;28;20386;-71
2023/03/10 07:20:44;;;;;;;21.85;10.35;;;0.80;99.90;;;;;;5031482;28;20041;-70
2023/03/10 07:23:11;;;;;;;23.58;10.57;;;0.90;99.90;;;;;;5032240;28;20060;-70
2023/03/10 07:25:38;;;;;;;24.05;10.35;;;0.90;99.90;;;;;;5030357;28;20054;-70
2023/03/10 07:28:04;;;;;;;25.90;11.60;;;1.30;99.90;;;;;;5033170;28;20050;-69
2023/03/10 07:30:31;;;;;;;22.05;10.45;;;0.90;99.90;;;;;;5032745;28;20045;-69
2023/03/10 07:32:56;;;;;;;22.88;11.23;;;2.20;99.90;;;;;;5032649;28;20081;-69
2023/03/10 07:35:22;;;;;;;23.48;11.30;;;1.30;99.90;;;;;;5032487;28;20103;-69
2023/03/10 07:37:48;;;;;;;17.65;9.07;;;0.90;99.90;;;;;;5032528;28;20041;-69
2023/03/10 07:40:13;;;;;;;23.38;11.25;;;1.40;99.90;;;;;;5032794;28;20077;-69
2023/03/10 07:42:41;;;;;;;19.90;10.45;;;1.10;99.90;;;;;;5032428;28;20042;-69
2023/03/10 07:45:07;;;;;;;19.98;9.18;;;1.00;99.90;;;;;;5032195;28;20370;-69
2023/03/10 07:47:33;;;;;;;24.38;11.23;;;1.00;99.90;;;;;;5031631;28;20041;-70
2023/03/10 07:49:58;;;;;;;20.40;9.95;;;2.40;99.90;;;;;;5032105;28;20041;-70
2023/03/10 07:52:24;;;;;;;22.08;10.85;;;2.40;99.90;;;;;;5031430;28;20518;-70
2023/03/10 07:54:50;;;;;;;19.88;9.73;;;1.00;99.90;;;;;;5031059;28;20537;-69
2023/03/10 07:57:16;;;;;;;21.08;9.98;;;1.10;99.90;;;;;;5032225;28;20120;-69
2023/03/10 07:59:42;;;;;;;19.23;9.80;;;1.80;99.90;;;;;;5029658;28;20052;-69
2023/03/10 08:02:11;;;;;;;20.38;10.43;;;0.80;99.90;;;;;;5029245;28;20499;-70
2023/03/10 08:04:37;;;;;;;21.30;10.75;;;1.30;99.90;;;;;;5032080;28;20038;-70
2023/03/10 08:07:03;;;;;;;20.75;9.40;;;1.00;99.90;;;;;;5014426;28;20120;-70
2023/03/10 08:09:29;;;;;;;19.67;9.05;;;1.00;99.90;;;;;;5031903;28;20351;-70
2023/03/10 08:11:57;;;;;;;19.88;10.07;;;1.10;99.90;;;;;;5030865;28;20467;-69
2023/03/10 08:14:23;;;;;;;20.67;9.77;;;0.90;99.90;;;;;;5031710;28;20474;-69
2023/03/10 08:16:50;;;;;;;20.45;9.55;;;1.00;99.90;;;;;;5030056;28;20038;-68
2023/03/10 08:19:16;;;;;;;24.05;11.13;;;1.90;99.90;;;;;;5031883;28;20051;-71
2023/03/10 08:21:42;;;;;;;22.00;10.25;;;1.70;99.90;;;;;;5037383;28;20475;-70
2023/03/10 08:24:09;;;;;;;21.98;11.00;;;1.40;99.90;;;;;;5014477;28;20092;-71
2023/03/10 08:26:34;;;;;;;26.83;13.18;;;1.10;99.90;;;;;;5031650;28;20110;-71
2023/03/10 08:29:00;;;;;;;21.23;10.65;;;2.20;99.90;;;;;;5030486;28;20045;-71
2023/03/10 08:31:26;;;;;;;25.15;12.48;;;1.90;99.90;;;;;;5014317;28;20360;-72
2023/03/10 08:33:56;;;;;;;24.02;12.70;;;1.10;99.90;;;;;;5031703;28;20045;-71
2023/03/10 08:36:26;;;;;;;25.83;11.15;;;1.00;99.90;;;;;;5032927;28;20427;-71
2023/03/10 08:38:54;;;;;;;23.05;12.65;;;2.20;99.90;;;;;;5033842;28;20052;-72
2023/03/10 08:41:27;;;;;;;25.90;12.07;;;2.00;99.90;;;;;;5031568;28;20041;-72
2023/03/10 08:43:54;;;;;;;25.90;12.10;;;1.00;99.90;;;;;;5030706;28;20420;-72
2023/03/10 08:46:23;;;;;;;25.15;11.60;;;1.10;99.90;;;;;;5031464;28;20352;-71
2023/03/10 08:48:49;;;;;;;26.60;12.05;;;1.10;99.90;;;;;;5031037;28;20124;-72
2023/03/10 08:51:15;;;;;;;26.98;13.48;;;1.10;99.90;;;;;;5030181;28;20129;-73
2023/03/10 08:53:42;;;;;;;27.80;12.93;;;1.20;99.90;;;;;;5030403;28;20073;-74
2023/03/10 08:56:08;;;;;;;24.98;12.57;;;1.10;99.90;;;;;;5031483;28;20052;-72
2023/03/10 08:58:34;;;;;;;25.08;10.90;;;1.30;99.90;;;;;;5031062;28;20386;-75
2023/03/10 09:00:59;;;;;;;25.85;12.73;;;1.90;99.90;;;;;;5030381;28;20042;-76
2023/03/10 09:03:25;;;;;;;25.52;12.90;;;2.00;99.90;;;;;;5031365;28;20037;-76
2023/03/10 09:05:51;;;;;;;28.23;13.20;;;1.20;99.90;;;;;;5031119;28;20067;-77
2023/03/10 09:08:17;;;;;;;28.35;13.63;;;2.10;99.90;;;;;;5030379;28;20038;-77
2023/03/10 09:10:44;;;;;;;28.65;13.40;;;1.30;99.90;;;;;;5029993;28;20038;-76
2023/03/10 09:13:11;;;;;;;26.33;12.27;;;1.20;99.90;;;;;;5031104;28;20047;-73
2023/03/10 09:15:40;;;;;;;26.45;12.52;;;1.10;99.90;;;;;;5030679;28;20549;-73
2023/03/10 09:18:10;;;;;;;24.98;10.70;;;1.30;99.90;;;;;;5030718;28;20463;-75
2023/03/10 09:20:37;;;;;;;28.83;13.23;;;1.40;99.90;;;;;;5029933;28;20048;-75
2023/03/10 09:23:03;;;;;;;26.10;11.73;;;1.20;99.90;;;;;;5029993;28;20386;-70
2023/03/10 09:25:29;;;;;;;19.58;9.85;;;2.70;99.90;;;;;;5030499;28;20490;-73
2023/03/10 09:27:55;;;;;;;27.17;11.55;;;1.00;99.90;;;;;;5028192;28;20056;-75
2023/03/10 09:30:21;;;;;;;27.65;13.18;;;1.40;99.90;;;;;;5020222;28;20046;-76
2023/03/10 09:32:47;;;;;;;21.35;10.82;;;1.50;99.90;;;;;;5019974;28;20034;-73
2023/03/10 09:35:13;;;;;;;29.60;13.88;;;1.50;99.90;;;;;;5021369;28;20053;-74
2023/03/10 09:37:39;;;;;;;23.90;10.63;;;1.60;99.90;;;;;;5002555;28;20436;-73
2023/03/10 09:40:08;;;;;;;25.42;12.30;;;1.70;99.90;;;;;;5019095;28;20370;-74
2023/03/10 09:42:39;;;;;;;26.20;12.80;;;1.10;99.90;;;;;;5021152;28;20093;-74
2023/03/10 09:45:17;;;;;;;19.90;9.05;;;1.30;99.90;;;;;;5020347;28;20042;-75
2023/03/10 09:48:31;;;;;;;27.75;13.00;;;1.20;99.90;;;;;;5019951;28;20110;-73
2023/03/10 09:50:59;;;;;;;27.85;11.48;;;1.20;99.90;;;;;;4985992;28;20434;-73
2023/03/10 09:53:47;;;;;;;22.13;11.43;;;1.20;99.90;;;;;;5024105;28;20479;-73
2023/03/10 09:56:19;;;;;;;21.75;10.00;;;1.10;99.90;;;;;;5024732;28;20069;-74
2023/03/10 09:58:49;;;;;;;24.00;12.38;;;1.90;99.90;;;;;;5023136;28;20046;-75
2023/03/10 10:01:22;;;;;;;22.95;10.90;;;2.20;99.90;;;;;;5022106;28;20038;-75
2023/03/10 10:03:51;;;;;;;22.33;11.05;;;1.20;99.90;;;;;;5024350;28;20471;-76
2023/03/10 10:06:27;;;;;;;23.40;11.43;;;1.70;99.90;;;;;;5019076;28;20067;-76
2023/03/10 10:08:59;;;;;;;19.52;9.50;;;1.20;99.90;;;;;;5023666;28;20065;-75
2023/03/10 10:11:25;;;;;;;22.58;10.70;;;1.30;99.90;;;;;;5024196;28;20091;-76
2023/03/10 10:14:12;;;;;;;23.98;11.27;;;1.30;99.90;;;;;;5024714;28;20057;-75
2023/03/10 10:16:45;;;;;;;24.17;12.55;;;1.30;99.90;;;;;;5022346;28;20037;-75
2023/03/10 10:19:22;;;;;;;22.42;10.48;;;2.20;99.90;;;;;;5024121;28;20065;-75
2023/03/10 10:22:02;;;;;;;22.80;10.75;;;1.30;99.90;;;;;;5022832;28;20041;-75
2023/03/10 10:24:28;;;;;;;22.27;10.43;;;1.20;99.90;;;;;;5023466;28;20042;-75
2023/03/10 10:26:55;;;;;;;18.20;8.85;;;1.40;99.90;;;;;;5022568;28;20097;-77
2023/03/10 10:29:29;;;;;;;22.15;10.57;;;1.80;99.90;;;;;;5004216;28;20394;-76
2023/03/10 10:32:04;;;;;;;20.88;9.55;;;1.40;99.90;;;;;;5023163;28;20067;-77
2023/03/10 10:34:31;;;;;;;22.38;11.40;;;1.40;99.90;;;;;;5023837;28;20057;-76
2023/03/10 10:36:57;;;;;;;21.70;9.93;;;1.50;99.90;;;;;;5021823;28;20038;-77
2023/03/10 10:39:27;;;;;;;20.17;8.82;;;1.20;99.90;;;;;;5022101;28;20045;-76
2023/03/10 10:41:53;;;;;;;19.65;9.18;;;1.30;99.90;;;;;;5021031;28;20049;-76
2023/03/10 10:44:20;;;;;;;24.23;11.82;;;1.30;99.90;;;;;;5023998;28;20037;-77
2023/03/10 10:46:54;;;;;;;22.83;11.30;;;2.40;99.90;;;;;;5021401;28;20041;-75
2023/03/10 10:49:26;;;;;;;23.60;10.25;;;1.30;99.90;;;;;;5020395;28;20038;-75
2023/03/10 10:52:20;;;;;;;20.75;9.55;;;1.30;99.90;;;;;;5023065;28;20046;-75
2023/03/10 10:54:55;;;;;;;22.05;9.20;;;1.30;99.90;;;;;;5009652;28;20510;-73
2023/03/10 10:57:24;;;;;;;20.70;10.13;;;2.80;99.90;;;;;;5022692;28;20054;-78
2023/03/10 10:59:50;;;;;;;21.77;9.82;;;2.20;99.90;;;;;;5021002;28;20120;-78
2023/03/10 11:02:33;;;;;;;20.55;9.10;;;1.50;99.90;;;;;;5020782;28;20041;-79
2023/03/10 11:05:11;;;;;;;22.65;10.50;;;1.20;99.90;;;;;;5020887;28;20042;-79
2023/03/10 11:07:37;;;;;;;24.17;12.07;;;1.20;99.90;;;;;;5021442;28;20038;-73
2023/03/10 11:10:17;;;;;;;23.40;11.10;;;2.10;99.90;;;;;;5014419;28;20053;-78
2023/03/10 11:12:46;;;;;;;21.00;9.90;;;1.30;99.90;;;;;;5013150;28;20042;-79
2023/03/10 11:15:29;;;;;;;20.65;11.15;;;1.40;99.90;;;;;;5016417;28;20464;-78
2023/03/10 11:18:03;;;;;;;24.67;12.35;;;2.20;99.90;;;;;;5013433;28;20042;-78
2023/03/10 11:20:32;;;;;;;;;;;1.30;99.90;;;;;;5019240;28;20077;-79
2023/03/10 11:22:58;;;;;;;20.38;10.35;;;2.30;99.90;;;;;;5016842;28;19922;-78
2023/03/10 11:25:30;;;;;;;23.40;11.20;;;2.00;99.90;;;;;;5017271;28;20042;-78
2023/03/10 11:28:17;;;;;;;20.38;9.23;;;1.30;99.90;;;;;;5018044;28;20038;-78
2023/03/10 11:31:12;;;;;;;22.65;9.43;;;1.30;99.90;;;;;;5018434;28;20046;-78
2023/03/10 11:33:41;;;;;;;22.27;10.38;;;1.40;99.90;;;;;;5028541;28;20045;-76
2023/03/10 11:36:41;;;;;;;22.00;10.02;;;1.30;99.90;;;;;;5023950;28;20037;-79
2023/03/10 11:39:26;;;;;;;22.55;10.90;;;1.40;99.90;;;;;;5021073;28;20034;-75
2023/03/10 11:42:14;;;;;;;22.13;11.70;;;2.30;99.90;;;;;;5019524;28;20046;-78
2023/03/10 11:44:56;;;;;;;20.63;10.13;;;1.40;99.90;;;;;;5018853;28;20056;-78
2023/03/10 11:47:47;;;;;;;18.58;9.52;;;1.40;99.90;;;;;;5018988;28;20050;-77
2023/03/10 11:50:27;;;;;;;23.65;10.55;;;1.40;99.90;;;;;;5021165;28;20057;-78
2023/03/10 11:53:02;;;;;;;20.08;10.30;;;1.40;99.90;;;;;;5018496;28;20050;-78
2023/03/10 11:55:30;;;;;;;21.63;10.85;;;1.40;99.90;;;;;;5019388;28;20482;-77
2023/03/10 11:57:59;;;;;;;20.92;10.38;;;2.50;99.90;;;;;;5019931;28;20045;-76
2023/03/10 12:00:35;;;;;;;17.92;9.02;;;1.40;99.90;;;;;;5018816;28;20054;-79
2023/03/10 12:03:18;;;;;;;17.45;8.73;;;1.50;99.90;;;;;;5014994;28;20042;-81
2023/03/10 12:05:51;;;;;;;23.08;10.70;;;1.40;99.90;;;;;;5020318;28;20042;-80
2023/03/10 12:16:05;;;;;;;21.42;9.38;;;1.40;99.90;;;;;;5071840;22;19992;-76
2023/03/10 12:18:32;;;;;;;18.83;8.45;;;1.40;99.90;;;;;;4972790;28;20376;-75
2023/03/10 12:21:18;;;;;;;21.55;9.52;;;1.50;99.90;;;;;;4948778;28;20123;-75
2023/03/10 12:23:47;;;;;;;18.73;8.13;;;1.90;99.90;;;;;;4981572;28;20038;-77
2023/03/10 12:26:13;;;;;;;20.77;9.40;;;1.50;99.90;;;;;;4982474;28;20077;-78
2023/03/10 12:28:39;;;;;;;16.92;8.70;;;2.10;99.90;;;;;;4983175;28;20058;-77
2023/03/10 12:31:05;;;;;;;21.52;10.27;;;2.30;99.90;;;;;;4966983;28;20101;-76
2023/03/10 12:33:36;;;;;;;16.52;8.18;;;1.40;99.90;;;;;;4965240;28;20057;-78
2023/03/10 12:36:32;;;;;;;19.55;9.25;;;1.60;99.90;;;;;;4991167;28;20050;-78
2023/03/10 12:38:59;;;;;;;20.02;8.82;;;1.30;99.90;;;;;;4982180;28;20045;-78
2023/03/10 12:41:27;;;;;;;18.85;9.90;;;1.80;99.90;;;;;;4979527;28;20038;-77
2023/03/10 12:44:02;;;;;;;15.73;7.60;;;1.50;99.90;;;;;;4951255;28;20125;-77
2023/03/10 12:46:40;;;;;;;17.85;7.95;;;1.40;99.90;;;;;;4965559;28;20038;-78
2023/03/10 12:49:20;;;;;;;20.90;9.32;;;1.30;99.90;;;;;;4964389;28;20054;-78
2023/03/10 12:51:53;;;;;;;18.17;8.65;;;1.20;99.90;;;;;;4982740;28;20125;-79
2023/03/10 12:54:30;;;;;;;20.20;8.68;;;1.60;99.90;;;;;;4969115;28;20039;-79
2023/03/10 12:57:16;;;;;;;20.33;9.65;;;1.10;99.90;;;;;;4968475;28;20062;-79
2023/03/10 13:00:15;;;;;;;18.20;7.82;;;1.50;99.90;;;;;;4966962;28;20062;-78